Time;durP1;ratioP1;P1;durP2;ratioP2;P2;SDS_P1;SDS_P2;PMS_P1;PMS_P2;Temp;Humidity;BMP_temperature;BMP_pressure;BME280_temperature;BME280_humidity;BME280_pressure;Samples;Min_cycle;Max_cycle;Signal;HPM_P1;HPM_P2
2023/04/12 00:01:00;;;;;;;8.80;3.60;;;;;;;13.42;100.00;99997.40;106872;1283;59248;-86
2023/04/12 00:03:26;;;;;;;9.20;3.50;;;;;;;13.44;100.00;99993.42;107317;1282;59073;-85
2023/04/12 00:05:53;;;;;;;9.80;3.70;;;;;;;13.48;100.00;99991.42;107270;1282;58990;-86
2023/04/12 00:08:23;;;;;;;10.80;3.90;;;;;;;13.45;100.00;99986.54;106682;1286;59148;-85
2023/04/12 00:10:50;;;;;;;10.80;3.90;;;;;;;13.43;100.00;99987.65;106533;1286;75245;-85
2023/04/12 00:13:16;;;;;;;13.60;3.20;;;;;;;13.43;100.00;99986.41;106487;1286;73583;-85
2023/04/12 00:15:41;;;;;;;10.50;3.70;;;;;;;13.42;100.00;99984.09;106574;1286;59074;-85
2023/04/12 00:18:07;;;;;;;9.00;3.20;;;;;;;13.36;100.00;99987.91;106507;1286;59085;-85
2023/04/12 00:20:32;;;;;;;7.30;3.50;;;;;;;13.29;100.00;99987.86;106733;1285;59105;-85
2023/04/12 00:22:58;;;;;;;11.90;3.80;;;;;;;13.27;100.00;99989.19;106766;1286;59171;-85
2023/04/12 00:25:24;;;;;;;9.40;3.70;;;;;;;13.25;100.00;99988.61;106689;1285;73509;-85
2023/04/12 00:27:49;;;;;;;6.20;3.30;;;;;;;13.21;100.00;99986.91;106331;1286;59011;-85
2023/04/12 00:30:16;;;;;;;11.30;4.60;;;;;;;13.18;100.00;99985.06;106647;1286;59180;-85
2023/04/12 00:32:41;;;;;;;9.30;4.50;;;;;;;13.16;100.00;99986.43;106694;1286;59025;-85
2023/04/12 00:35:07;;;;;;;10.90;5.10;;;;;;;13.13;100.00;99982.48;106524;1286;59132;-85
2023/04/12 00:37:35;;;;;;;13.90;5.30;;;;;;;13.08;100.00;99986.55;106679;1286;59120;-85
2023/04/12 00:40:01;;;;;;;12.60;5.30;;;;;;;13.06;100.00;99981.16;107121;1281;59025;-83
2023/04/12 00:42:26;;;;;;;17.40;5.90;;;;;;;13.04;100.00;99979.95;107313;1282;59361;-85
2023/04/12 00:44:52;;;;;;;14.80;6.10;;;;;;;12.98;100.00;99980.67;106777;1283;59328;-84
2023/04/12 00:47:17;;;;;;;14.70;6.50;;;;;;;12.93;100.00;99979.60;107285;1283;72908;-84
2023/04/12 00:49:43;;;;;;;13.10;6.50;;;;;;;12.87;100.00;99977.67;107258;1283;58971;-84
2023/04/12 00:52:14;;;;;;;14.30;5.70;;;;;;;12.85;100.00;99976.83;107328;1281;59243;-84
2023/04/12 00:54:40;;;;;;;14.80;5.90;;;;;;;12.80;100.00;99975.98;106905;1282;74679;-84
2023/04/12 00:57:06;;;;;;;13.20;5.70;;;;;;;12.78;100.00;99975.27;106730;1283;58976;-84
2023/04/12 00:59:32;;;;;;;11.50;4.80;;;;;;;12.77;100.00;99970.56;107064;1282;59143;-84
2023/04/12 01:01:58;;;;;;;11.80;4.30;;;;;;;12.73;100.00;99969.11;107298;1282;59031;-84
2023/04/12 01:04:25;;;;;;;10.60;4.60;;;;;;;12.70;100.00;99968.20;107091;1282;59058;-84
2023/04/12 01:07:04;;;;;;;14.50;4.40;;;;;;;12.68;100.00;99966.24;107280;1283;59144;-85
2023/04/12 01:09:42;;;;;;;9.70;3.90;;;;;;;12.63;100.00;99965.88;107297;1282;74580;-84
2023/04/12 01:12:41;;;;;;;9.20;3.90;;;;;;;12.57;100.00;99966.02;107229;1281;73544;-85
2023/04/12 01:15:10;;;;;;;11.60;3.90;;;;;;;12.48;100.00;99961.06;107254;1282;61540;-85
2023/04/12 01:17:56;;;;;;;8.80;4.40;;;;;;;12.45;100.00;99962.77;107342;1281;61130;-86
2023/04/12 01:20:26;;;;;;;11.20;4.60;;;;;;;12.42;100.00;99960.81;106756;1283;75445;-85
2023/04/12 01:23:38;;;;;;;10.80;4.50;;;;;;;12.38;100.00;99958.58;107268;1282;74795;-85
2023/04/12 01:26:43;;;;;;;12.80;6.10;;;;;;;12.33;100.00;99953.62;106307;1291;73817;-85
2023/04/12 01:29:15;;;;;;;19.90;8.20;;;;;;;12.29;100.00;99949.48;105738;1297;61845;-86
2023/04/12 01:31:53;;;;;;;24.90;9.90;;;;;;;12.26;100.00;99947.05;105784;1296;61138;-86
2023/04/12 01:34:21;;;;;;;15.00;8.10;;;;;;;12.20;100.00;99944.45;105793;1297;75287;-86
2023/04/12 01:36:48;;;;;;;17.10;6.30;;;;;;;12.18;100.00;99939.13;105423;1299;73727;-86
2023/04/12 01:39:14;;;;;;;12.30;5.70;;;;;;;12.15;100.00;99936.20;105567;1299;72630;-86
2023/04/12 01:41:47;;;;;;;13.30;6.40;;;;;;;12.13;100.00;99933.68;105597;1298;59105;-86
2023/04/12 01:44:16;;;;;;;14.10;5.70;;;;;;;12.10;100.00;99929.55;105484;1300;60354;-85
2023/04/12 01:46:45;;;;;;;14.00;5.70;;;;;;;12.04;100.00;99925.98;105576;1299;74528;-85
2023/04/12 01:49:11;;;;;;;11.40;5.20;;;;;;;12.02;100.00;99922.39;105552;1299;74595;-85
2023/04/12 01:52:00;;;;;;;9.80;4.90;;;;;;;11.98;100.00;99920.92;105536;1299;59073;-85
2023/04/12 01:54:32;;;;;;;13.30;5.40;;;;;;;11.95;100.00;99915.66;105565;1299;61910;-86
2023/04/12 01:57:01;;;;;;;15.70;4.80;;;;;;;11.92;100.00;99910.08;105563;1299;61083;-86
2023/04/12 01:59:39;;;;;;;11.50;5.10;;;;;;;11.90;100.00;99908.69;105733;1286;74216;-85
2023/04/12 02:02:07;;;;;;;11.10;5.50;;;;;;;11.91;100.00;99904.63;106452;1286;73663;-86
2023/04/12 02:04:36;;;;;;;11.30;5.30;;;;;;;11.89;100.00;99900.02;106444;1286;72338;-85
2023/04/12 02:07:02;;;;;;;10.50;4.70;;;;;;;11.90;100.00;99900.20;106660;1286;62817;-84
2023/04/12 02:09:28;;;;;;;12.40;4.80;;;;;;;11.89;100.00;99899.68;107268;1281;58987;-85
2023/04/12 02:11:53;;;;;;;11.20;4.70;;;;;;;11.87;100.00;99893.34;107283;1282;59048;-85
2023/04/12 02:14:19;;;;;;;13.70;4.40;;;;;;;11.85;100.00;99890.37;107252;1282;59125;-85
2023/04/12 02:16:45;;;;;;;12.20;4.90;;;;;;;11.86;100.00;99888.09;107294;1282;59601;-85
2023/04/12 02:19:11;;;;;;;13.90;4.40;;;;;;;11.83;100.00;99889.95;106797;1283;60056;-85
2023/04/12 02:21:41;;;;;;;13.00;4.80;;;;;;;11.81;100.00;99888.98;107276;1282;75317;-85
2023/04/12 02:24:07;;;;;;;8.50;4.30;;;;;;;11.82;100.00;99883.57;107250;1282;74198;-85
2023/04/12 02:26:32;;;;;;;8.70;4.60;;;;;;;11.80;100.00;99880.20;107270;1282;58968;-86
2023/04/12 02:28:58;;;;;;;8.40;4.60;;;;;;;11.83;100.00;99876.88;106692;1283;59208;-86
2023/04/12 02:31:23;;;;;;;9.50;4.50;;;;;;;11.86;100.00;99876.55;107305;1281;59020;-86
2023/04/12 02:33:49;;;;;;;12.30;4.60;;;;;;;11.86;100.00;99875.20;107308;1281;59084;-86
2023/04/12 02:36:15;;;;;;;10.80;5.10;;;;;;;11.87;100.00;99875.40;107269;1282;73380;-86
2023/04/12 02:38:40;;;;;;;14.00;5.00;;;;;;;11.89;100.00;99875.33;107311;1282;59032;-86
2023/04/12 02:41:06;;;;;;;11.20;5.00;;;;;;;11.92;100.00;99875.09;107261;1282;59055;-86
2023/04/12 02:43:32;;;;;;;17.60;4.60;;;;;;;11.90;100.00;99871.64;106739;1282;59018;-86
2023/04/12 02:45:58;;;;;;;10.00;5.10;;;;;;;11.93;100.00;99874.36;107110;1281;59189;-86
2023/04/12 02:48:24;;;;;;;7.90;4.30;;;;;;;11.92;100.00;99868.55;107294;1282;59227;-86
2023/04/12 02:50:49;;;;;;;10.60;4.40;;;;;;;11.93;100.00;99869.52;106977;1285;60181;-86
2023/04/12 02:53:15;;;;;;;11.90;4.50;;;;;;;11.92;100.00;99866.07;107291;1282;59046;-85
2023/04/12 02:55:41;;;;;;;10.50;5.20;;;;;;;11.94;100.00;99863.92;107071;1282;59253;-86
2023/04/12 02:58:06;;;;;;;8.30;4.40;;;;;;;11.93;100.00;99863.89;107301;1282;59048;-85
2023/04/12 03:00:35;;;;;;;10.40;4.50;;;;;;;11.92;100.00;99861.20;106785;1282;59082;-85
2023/04/12 03:03:02;;;;;;;11.70;4.40;;;;;;;11.94;100.00;99859.68;107055;1283;75796;-85
2023/04/12 03:05:28;;;;;;;8.20;4.40;;;;;;;11.95;100.00;99860.57;107292;1282;74850;-86
2023/04/12 03:07:53;;;;;;;11.40;4.30;;;;;;;11.97;100.00;99856.02;107294;1281;59064;-85
2023/04/12 03:10:19;;;;;;;12.30;4.80;;;;;;;11.97;100.00;99857.09;107273;1282;59077;-85
2023/04/12 03:12:45;;;;;;;12.50;4.60;;;;;;;11.98;100.00;99858.17;107283;1282;59080;-85
2023/04/12 03:15:10;;;;;;;8.60;4.20;;;;;;;11.97;100.00;99855.10;107285;1281;59162;-85
2023/04/12 03:17:36;;;;;;;12.10;4.50;;;;;;;11.96;100.00;99852.45;107332;1281;59355;-86
2023/04/12 03:20:05;;;;;;;15.00;4.50;;;;;;;11.97;100.00;99852.66;107287;1282;59181;-85
2023/04/12 03:22:31;;;;;;;8.10;4.80;;;;;;;11.98;100.00;99853.30;107276;1281;61352;-86
2023/04/12 03:24:56;;;;;;;17.60;4.70;;;;;;;11.97;100.00;99852.56;107297;1282;59156;-86
2023/04/12 03:27:22;;;;;;;14.60;4.50;;;;;;;11.97;100.00;99855.42;106787;1281;59180;-86
2023/04/12 03:29:47;;;;;;;10.90;4.20;;;;;;;11.97;100.00;99851.85;107271;1281;59520;-85
2023/04/12 03:32:12;;;;;;;7.10;4.00;;;;;;;11.94;100.00;99859.18;107300;1281;58989;-85
2023/04/12 03:34:38;;;;;;;13.40;4.40;;;;;;;11.94;100.00;99857.84;107291;1282;59462;-85
2023/04/12 03:37:04;;;;;;;11.00;4.30;;;;;;;11.92;100.00;99857.48;107314;1282;59476;-85
2023/04/12 03:39:29;;;;;;;9.80;4.40;;;;;;;11.94;100.00;99863.02;106982;1283;59381;-86
2023/04/12 03:41:55;;;;;;;15.00;4.40;;;;;;;11.94;100.00;99861.50;107247;1281;59070;-86
2023/04/12 03:44:25;;;;;;;13.00;4.40;;;;;;;11.95;100.00;99863.11;107354;1281;59085;-85
2023/04/12 03:46:50;;;;;;;13.30;5.00;;;;;;;11.97;100.00;99863.91;107268;1281;74072;-85
2023/04/12 03:49:16;;;;;;;9.60;4.80;;;;;;;11.99;100.00;99860.64;107274;1281;59065;-85
2023/04/12 03:51:42;;;;;;;11.00;5.00;;;;;;;12.03;100.00;99854.66;107282;1282;58949;-85
2023/04/12 03:54:12;;;;;;;8.30;4.60;;;;;;;12.04;100.00;99854.87;106852;1280;59121;-85
2023/04/12 03:56:38;;;;;;;12.10;4.70;;;;;;;12.05;100.00;99859.70;106908;1283;74409;-85
2023/04/12 03:59:06;;;;;;;10.60;5.10;;;;;;;12.05;100.00;99854.86;107297;1281;59253;-85
2023/04/12 04:01:32;;;;;;;11.40;4.70;;;;;;;12.06;100.00;99854.83;107288;1282;71617;-85
2023/04/12 04:03:58;;;;;;;9.40;4.10;;;;;;;12.07;100.00;99857.31;107299;1282;58955;-85
2023/04/12 04:06:23;;;;;;;11.40;4.40;;;;;;;12.10;100.00;99857.59;107333;1281;59112;-85
2023/04/12 04:08:49;;;;;;;13.00;3.90;;;;;;;12.11;100.00;99860.88;107327;1281;59138;-85
2023/04/12 04:11:15;;;;;;;9.60;4.00;;;;;;;12.12;100.00;99863.84;107331;1282;59287;-85
2023/04/12 04:13:40;;;;;;;8.50;4.10;;;;;;;12.13;100.00;99864.22;107355;1282;59088;-84
2023/04/12 04:16:09;;;;;;;8.90;4.00;;;;;;;12.14;100.00;99864.78;107316;1281;60265;-84
2023/04/12 04:18:34;;;;;;;9.60;3.90;;;;;;;12.19;100.00;99865.17;107309;1282;75462;-84
2023/04/12 04:21:00;;;;;;;8.80;3.90;;;;;;;12.21;100.00;99868.01;107316;1281;59364;-85
2023/04/12 04:23:27;;;;;;;10.10;3.60;;;;;;;12.20;100.00;99866.23;106761;1283;59157;-85
2023/04/12 04:25:54;;;;;;;10.70;3.70;;;;;;;12.20;100.00;99872.17;107307;1281;58953;-84
2023/04/12 04:28:19;;;;;;;9.60;3.60;;;;;;;12.21;100.00;99871.36;107301;1281;59010;-83
2023/04/12 04:30:45;;;;;;;10.10;3.50;;;;;;;12.24;100.00;99870.84;107288;1281;59457;-83
2023/04/12 04:33:11;;;;;;;8.70;3.40;;;;;;;12.26;100.00;99875.14;107055;1282;59738;-84
2023/04/12 04:35:41;;;;;;;11.30;3.80;;;;;;;12.26;100.00;99870.10;107293;1281;59084;-85
2023/04/12 04:38:06;;;;;;;9.20;3.70;;;;;;;12.24;100.00;99871.31;107280;1283;62638;-84
2023/04/12 04:40:32;;;;;;;8.30;3.60;;;;;;;12.22;100.00;99868.31;107306;1281;59357;-84
2023/04/12 04:42:58;;;;;;;10.70;3.90;;;;;;;12.22;100.00;99870.21;107318;1282;59046;-85
2023/04/12 04:45:29;;;;;;;9.90;3.80;;;;;;;12.19;100.00;99869.80;107273;1281;59066;-84
2023/04/12 04:47:55;;;;;;;13.30;3.90;;;;;;;12.19;100.00;99873.77;107001;1283;73470;-84
2023/04/12 04:50:22;;;;;;;13.50;4.20;;;;;;;12.15;100.00;99872.94;107055;1283;58992;-84
2023/04/12 04:52:49;;;;;;;8.30;3.80;;;;;;;12.14;100.00;99870.47;107282;1282;61129;-84
2023/04/12 04:55:20;;;;;;;11.30;4.00;;;;;;;12.11;100.00;99870.17;107326;1281;74462;-84
2023/04/12 04:57:46;;;;;;;11.70;3.90;;;;;;;12.13;100.00;99869.06;107292;1281;73157;-84
2023/04/12 05:00:13;;;;;;;16.70;4.30;;;;;;;12.11;100.00;99866.77;107289;1281;59215;-85
2023/04/12 05:02:41;;;;;;;13.00;4.30;;;;;;;12.12;100.00;99868.42;106757;1283;59351;-84
2023/04/12 05:05:14;;;;;;;11.40;3.90;;;;;;;12.10;100.00;99872.34;106855;1282;59377;-84
2023/04/12 05:07:42;;;;;;;12.60;4.00;;;;;;;12.10;100.00;99874.02;107307;1281;74616;-84
2023/04/12 05:10:09;;;;;;;10.00;4.00;;;;;;;12.08;100.00;99876.90;107076;1283;74809;-85
2023/04/12 05:12:34;;;;;;;9.40;4.30;;;;;;;12.06;100.00;99880.55;107273;1281;73462;-85
2023/04/12 05:15:00;;;;;;;10.50;4.20;;;;;;;12.08;100.00;99876.58;107302;1281;59195;-84
2023/04/12 05:17:26;;;;;;;12.40;4.50;;;;;;;12.10;100.00;99875.27;107291;1282;59132;-84
2023/04/12 05:19:52;;;;;;;14.10;5.00;;;;;;;12.07;100.00;99873.36;107114;1282;59370;-84
2023/04/12 05:22:20;;;;;;;12.10;4.80;;;;;;;12.09;100.00;99869.55;107296;1281;59079;-84
2023/04/12 05:24:47;;;;;;;10.60;4.80;;;;;;;12.08;100.00;99870.20;107303;1281;59038;-84
2023/04/12 05:27:13;;;;;;;12.10;4.80;;;;;;;12.07;100.00;99867.36;107102;1283;59107;-83
2023/04/12 05:29:38;;;;;;;10.10;4.40;;;;;;;12.07;100.00;99870.86;107076;1282;59027;-83
2023/04/12 05:32:04;;;;;;;14.60;4.60;;;;;;;12.08;100.00;99872.85;107328;1282;59046;-83
2023/04/12 05:34:29;;;;;;;8.90;4.40;;;;;;;12.04;100.00;99873.50;107329;1281;59126;-84
2023/04/12 05:36:55;;;;;;;15.80;4.70;;;;;;;12.01;100.00;99875.94;107310;1281;59157;-82
2023/04/12 05:39:21;;;;;;;15.60;5.10;;;;;;;11.98;100.00;99874.25;107267;1281;59055;-84
2023/04/12 05:41:47;;;;;;;12.10;4.40;;;;;;;11.92;100.00;99872.97;107302;1281;59014;-83
2023/04/12 05:44:13;;;;;;;18.10;5.10;;;;;;;11.92;100.00;99870.91;106780;1281;59378;-84
2023/04/12 05:46:39;;;;;;;12.80;4.80;;;;;;;11.93;100.00;99870.14;107264;1281;59037;-85
2023/04/12 05:49:05;;;;;;;14.90;5.00;;;;;;;11.91;100.00;99867.76;106790;1280;59087;-84
2023/04/12 05:51:31;;;;;;;16.00;5.80;;;;;;;11.91;100.00;99865.64;106772;1281;59408;-85
2023/04/12 05:53:57;;;;;;;16.60;5.30;;;;;;;11.88;100.00;99862.33;106679;1282;59168;-85
2023/04/12 05:56:23;;;;;;;13.90;5.80;;;;;;;11.82;100.00;99863.49;107299;1281;59067;-85
2023/04/12 05:58:48;;;;;;;12.30;4.80;;;;;;;11.83;100.00;99860.99;107233;1281;61713;-86
2023/04/12 06:01:15;;;;;;;16.30;6.10;;;;;;;11.87;100.00;99861.63;107330;1282;59083;-85
2023/04/12 06:03:42;;;;;;;14.30;4.80;;;;;;;11.90;100.00;99863.70;106891;1283;59135;-86
2023/04/12 06:06:08;;;;;;;16.90;5.30;;;;;;;11.94;100.00;99863.61;106870;1282;59100;-86
2023/04/12 06:08:36;;;;;;;15.50;5.20;;;;;;;11.94;100.00;99858.80;106476;1282;59164;-85
2023/04/12 06:11:03;;;;;;;14.90;5.10;;;;;;;11.94;100.00;99861.50;107062;1282;62198;-85
2023/04/12 06:13:29;;;;;;;15.70;4.50;;;;;;;11.92;100.00;99862.66;106855;1282;60671;-86
2023/04/12 06:15:55;;;;;;;9.80;5.10;;;;;;;11.98;100.00;99863.95;106893;1283;59131;-86
2023/04/12 06:18:21;;;;;;;10.70;5.60;;;;;;;11.98;100.00;99861.83;107321;1281;58992;-86
2023/04/12 06:20:47;;;;;;;14.10;5.20;;;;;;;12.02;100.00;99860.48;107292;1281;59243;-85
2023/04/12 06:23:12;;;;;;;16.40;5.20;;;;;;;12.04;100.00;99856.65;106855;1281;59575;-86
2023/04/12 06:25:38;;;;;;;13.90;5.50;;;;;;;12.04;100.00;99854.42;106879;1283;59114;-85
2023/04/12 06:28:04;;;;;;;17.50;5.90;;;;;;;12.05;100.00;99855.34;107343;1281;59013;-86
2023/04/12 06:30:30;;;;;;;10.90;5.20;;;;;;;12.09;100.00;99853.44;107296;1281;59012;-85
2023/04/12 06:32:56;;;;;;;13.60;5.70;;;;;;;12.15;100.00;99852.31;107305;1281;59056;-85
2023/04/12 06:35:21;;;;;;;18.00;5.70;;;;;;;12.13;100.00;99855.39;107267;1284;59006;-86
2023/04/12 06:37:48;;;;;;;11.00;5.20;;;;;;;12.17;100.00;99853.86;107074;1282;59056;-85
2023/04/12 06:40:14;;;;;;;11.50;5.80;;;;;;;12.20;100.00;99852.98;107302;1281;59115;-85
2023/04/12 06:42:39;;;;;;;15.70;6.00;;;;;;;12.27;100.00;99851.50;106806;1282;59075;-85
2023/04/12 06:45:06;;;;;;;14.60;6.10;;;;;;;12.25;100.00;99852.84;107330;1281;59795;-85
2023/04/12 06:47:31;;;;;;;17.40;6.30;;;;;;;12.24;100.00;99854.91;107295;1281;75759;-85
2023/04/12 06:49:57;;;;;;;16.80;6.60;;;;;;;12.27;100.00;99856.90;106995;1281;59109;-85
2023/04/12 06:52:26;;;;;;;17.50;7.10;;;;;;;12.27;100.00;99857.66;107053;1282;59057;-85
2023/04/12 06:54:53;;;;;;;13.50;6.90;;;;;;;12.28;100.00;99861.02;106387;1285;60747;-86
2023/04/12 06:57:18;;;;;;;26.60;7.50;;;;;;;12.26;100.00;99856.27;106435;1288;59080;-86
2023/04/12 06:59:44;;;;;;;15.90;6.60;;;;;;;12.31;100.00;99857.77;106268;1289;59375;-85
2023/04/12 07:02:10;;;;;;;14.00;6.60;;;;;;;12.31;100.00;99853.29;106419;1288;59127;-85
2023/04/12 07:04:36;;;;;;;18.20;6.60;;;;;;;12.31;100.00;99851.66;106089;1288;384662;-86
2023/04/12 07:07:01;;;;;;;27.00;7.00;;;;;;;12.31;100.00;99849.50;106336;1289;59083;-86
2023/04/12 07:09:31;;;;;;;17.50;7.10;;;;;;;12.37;100.00;99847.06;106470;1288;59198;-86
2023/04/12 07:11:57;;;;;;;12.50;6.50;;;;;;;12.36;100.00;99847.24;106438;1289;73295;-86
2023/04/12 07:14:23;;;;;;;17.00;7.20;;;;;;;12.34;100.00;99847.90;106452;1288;59096;-86
2023/04/12 07:16:48;;;;;;;18.70;7.30;;;;;;;12.38;100.00;99847.27;106446;1288;59009;-85
2023/04/12 07:19:15;;;;;;;16.60;6.90;;;;;;;12.42;100.00;99845.54;106420;1288;59517;-86
2023/04/12 07:21:41;;;;;;;18.60;7.40;;;;;;;12.42;100.00;99842.39;106462;1288;59095;-86
2023/04/12 07:24:06;;;;;;;19.60;7.70;;;;;;;12.40;100.00;99847.06;106464;1288;59979;-85
2023/04/12 07:26:32;;;;;;;19.80;7.70;;;;;;;12.44;100.00;99846.31;106257;1289;59446;-86
2023/04/12 07:28:58;;;;;;;21.30;7.90;;;;;;;12.46;100.00;99847.41;106744;1285;59030;-86
2023/04/12 07:31:24;;;;;;;18.80;7.70;;;;;;;12.50;100.00;99837.27;106840;1285;75075;-86
2023/04/12 07:33:50;;;;;;;16.30;7.20;;;;;;;12.46;100.00;99842.62;107218;1282;59063;-86
2023/04/12 07:36:19;;;;;;;20.30;7.10;;;;;;;12.41;100.00;99838.36;106980;1282;59108;-86
2023/04/12 07:38:45;;;;;;;15.70;7.30;;;;;;;12.37;100.00;99846.15;107194;1282;60725;-86
2023/04/12 07:41:11;;;;;;;15.50;7.80;;;;;;;12.37;100.00;99845.43;107211;1282;59061;-85
2023/04/12 07:43:36;;;;;;;20.10;7.40;;;;;;;12.43;100.00;99846.60;107234;1282;58995;-85
2023/04/12 07:46:06;;;;;;;21.60;8.40;;;;;;;12.43;100.00;99849.30;107014;1281;59596;-85
2023/04/12 07:48:32;;;;;;;24.40;7.80;;;;;;;12.42;100.00;99850.95;107192;1281;73435;-85
2023/04/12 07:50:58;;;;;;;26.00;7.90;;;;;;;12.40;100.00;99851.67;107181;1282;59025;-85
2023/04/12 07:53:27;;;;;;;23.10;8.10;;;;;;;12.39;100.00;99854.28;106999;1282;59137;-84
2023/04/12 07:55:54;;;;;;;23.60;8.60;;;;;;;12.36;100.00;99852.81;107206;1282;75380;-85
2023/04/12 07:58:22;;;;;;;21.30;7.40;;;;;;;12.36;100.00;99850.36;107038;1282;73311;-85
2023/04/12 08:00:48;;;;;;;23.50;7.70;;;;;;;12.38;100.00;99852.34;107221;1282;73854;-84
2023/04/12 08:03:15;;;;;;;17.10;7.40;;;;;;;12.37;100.00;99850.73;107307;1281;68838;-85
2023/04/12 08:05:42;;;;;;;19.40;7.40;;;;;;;12.38;100.00;99847.36;107283;1283;61156;-84
2023/04/12 08:08:09;;;;;;;13.80;6.50;;;;;;;12.40;100.00;99848.48;107314;1282;75510;-84
2023/04/12 08:10:36;;;;;;;17.50;7.70;;;;;;;12.43;100.00;99845.03;107075;1282;58979;-84
2023/04/12 08:13:02;;;;;;;14.90;7.40;;;;;;;12.42;100.00;99847.00;106882;1281;73639;-85
2023/04/12 08:15:28;;;;;;;16.00;7.20;;;;;;;12.41;100.00;99844.36;107333;1282;61635;-83
2023/04/12 08:17:54;;;;;;;14.60;6.20;;;;;;;12.46;100.00;99846.29;107320;1281;59392;-83
2023/04/12 08:20:19;;;;;;;23.30;7.20;;;;;;;12.54;100.00;99841.44;107354;1280;59505;-82
2023/04/12 08:22:46;;;;;;;15.40;6.80;;;;;;;12.59;100.00;99838.56;107294;1281;59072;-82
2023/04/12 08:25:12;;;;;;;15.40;6.20;;;;;;;12.65;100.00;99838.79;107319;1281;59170;-82
2023/04/12 08:27:42;;;;;;;12.80;6.50;;;;;;;12.63;100.00;99830.71;107353;1282;58986;-82
2023/04/12 08:30:09;;;;;;;20.60;7.20;;;;;;;12.69;100.00;99829.38;107304;1281;60128;-82
2023/04/12 08:32:36;;;;;;;15.60;6.50;;;;;;;12.69;100.00;99831.38;107321;1281;74782;-82
2023/04/12 08:35:02;;;;;;;17.00;6.50;;;;;;;12.70;100.00;99830.45;107327;1282;74520;-82
2023/04/12 08:37:28;;;;;;;15.10;6.30;;;;;;;12.64;100.00;99831.49;106787;1282;71455;-81
2023/04/12 08:39:54;;;;;;;20.60;6.80;;;;;;;12.61;100.00;99830.58;107348;1285;58997;-81
2023/04/12 08:42:20;;;;;;;22.00;6.90;;;;;;;12.63;100.00;99829.41;107350;1281;59070;-81
2023/04/12 08:44:46;;;;;;;16.40;7.20;;;;;;;12.68;100.00;99824.37;107322;1282;59171;-80
2023/04/12 08:47:12;;;;;;;13.70;6.20;;;;;;;12.66;100.00;99828.35;107311;1282;59100;-81
2023/04/12 08:49:37;;;;;;;25.20;7.30;;;;;;;12.69;100.00;99824.94;107313;1281;59874;-80
2023/04/12 08:52:08;;;;;;;28.00;7.50;;;;;;;12.68;100.00;99830.41;107056;1281;61183;-80
2023/04/12 08:54:34;;;;;;;17.20;6.90;;;;;;;12.63;100.00;99827.14;107314;1281;75369;-80
2023/04/12 08:57:03;;;;;;;21.10;7.00;;;;;;;12.69;100.00;99822.46;106914;1282;59055;-80
2023/04/12 08:59:30;;;;;;;18.30;6.60;;;;;;;12.69;100.00;99819.36;107339;1281;72740;-80
2023/04/12 09:01:56;;;;;;;16.30;6.90;;;;;;;12.70;100.00;99816.81;106753;1288;61647;-80
2023/04/12 09:04:23;;;;;;;24.60;7.50;;;;;;;12.71;100.00;99816.64;107337;1281;58961;-80
2023/04/12 09:06:48;;;;;;;14.10;5.60;;;;;;;12.76;100.00;99820.79;107363;1281;59048;-80
2023/04/12 09:09:14;;;;;;;24.50;6.60;;;;;;;12.75;100.00;99823.13;107338;1281;59051;-79
2023/04/12 09:11:40;;;;;;;16.60;6.60;;;;;;;12.74;100.00;99822.70;107323;1282;59078;-79
2023/04/12 09:14:22;;;;;;;14.60;5.70;;;;;;;12.78;100.00;99824.48;107356;1281;59072;-79
2023/04/12 09:16:48;;;;;;;20.30;6.00;;;;;;;12.81;100.00;99820.73;106827;1283;60218;-80
2023/04/12 09:19:14;;;;;;;19.30;6.00;;;;;;;12.75;100.00;99821.95;107088;1281;59035;-79
2023/04/12 09:22:00;;;;;;;12.00;5.00;;;;;;;12.73;100.00;99826.78;107087;1282;59155;-79
2023/04/12 09:24:26;;;;;;;9.10;4.90;;;;;;;12.70;100.00;99828.45;107322;1281;73190;-79
2023/04/12 09:27:06;;;;;;;16.20;5.60;;;;;;;12.68;100.00;99827.84;106785;1286;59050;-79
2023/04/12 09:29:32;;;;;;;13.40;5.20;;;;;;;12.72;100.00;99826.03;107339;1282;60422;-79
2023/04/12 09:32:02;;;;;;;9.00;4.90;;;;;;;12.70;100.00;99828.22;107341;1281;74334;-78
2023/04/12 09:34:34;;;;;;;9.10;4.80;;;;;;;12.70;100.00;99829.02;107360;1282;74446;-79
2023/04/12 09:37:12;;;;;;;8.80;5.00;;;;;;;12.70;100.00;99827.04;107300;1281;73443;-79
2023/04/12 09:39:37;;;;;;;9.90;5.30;;;;;;;12.69;100.00;99825.27;107284;1282;62762;-79
2023/04/12 09:42:05;;;;;;;7.80;5.30;;;;;;;12.68;100.00;99823.55;107338;1281;59085;-79
2023/04/12 09:44:30;;;;;;;11.40;5.80;;;;;;;12.69;100.00;99826.52;107338;1282;59053;-79
2023/04/12 09:46:57;;;;;;;10.00;6.40;;;;;;;12.63;100.00;99821.79;107341;1282;59398;-79
2023/04/12 09:49:40;;;;;;;13.50;6.50;;;;;;;12.63;100.00;99815.30;107317;1281;59734;-78
2023/04/12 09:52:09;;;;;;;14.20;6.40;;;;;;;12.65;100.00;99814.95;107313;1282;61982;-78
2023/04/12 09:54:40;;;;;;;14.00;6.40;;;;;;;12.65;100.00;99809.20;107343;1281;59863;-78
2023/04/12 09:57:09;;;;;;;12.90;6.60;;;;;;;12.65;100.00;99810.36;107076;1283;75636;-78
2023/04/12 09:59:38;;;;;;;27.40;8.10;;;;;;;12.63;100.00;99804.61;107357;1281;73414;-78
2023/04/12 10:02:07;;;;;;;27.60;8.50;;;;;;;12.68;100.00;99808.04;106916;1283;71845;-78
2023/04/12 10:04:36;;;;;;;17.70;7.90;;;;;;;12.74;100.00;99809.36;107296;1281;62715;-79
2023/04/12 10:07:02;;;;;;;19.70;9.20;;;;;;;12.72;100.00;99803.92;107313;1281;61143;-78
2023/04/12 10:09:28;;;;;;;15.00;9.00;;;;;;;12.73;100.00;99802.98;107314;1281;75681;-78
2023/04/12 10:11:54;;;;;;;16.80;8.70;;;;;;;12.74;100.00;99800.59;107366;1282;59047;-78
2023/04/12 10:14:21;;;;;;;17.70;9.40;;;;;;;12.71;100.00;99797.34;106858;1281;59561;-79
2023/04/12 10:16:47;;;;;;;16.50;9.10;;;;;;;12.76;100.00;99797.96;107095;1283;59101;-78
2023/04/12 10:19:15;;;;;;;24.30;9.50;;;;;;;12.80;100.00;99796.34;106785;1281;60054;-78
2023/04/12 10:21:41;;;;;;;30.20;11.00;;;;;;;12.78;100.00;99792.42;106792;1281;59162;-79
2023/04/12 10:24:08;;;;;;;23.20;9.70;;;;;;;12.76;100.00;99793.71;107328;1281;59035;-77
2023/04/12 10:26:34;;;;;;;19.30;9.20;;;;;;;12.72;100.00;99796.08;106756;1282;59131;-78
2023/04/12 10:29:21;;;;;;;21.90;10.30;;;;;;;12.73;100.00;99794.45;107347;1280;59426;-78
2023/04/12 10:31:46;;;;;;;16.60;10.10;;;;;;;12.74;100.00;99795.45;107334;1281;60107;-78
2023/04/12 10:34:12;;;;;;;28.90;10.70;;;;;;;12.75;100.00;99795.29;107312;1282;59049;-78
2023/04/12 10:36:57;;;;;;;26.20;11.20;;;;;;;12.74;100.00;99794.80;107345;1281;59144;-78
2023/04/12 10:39:42;;;;;;;20.80;10.00;;;;;;;12.77;100.00;99797.63;107316;1282;72508;-78
2023/04/12 10:42:30;;;;;;;25.60;10.60;;;;;;;12.78;100.00;99794.85;107292;1281;61852;-78
2023/04/12 10:45:16;;;;;;;20.20;10.00;;;;;;;12.75;100.00;99791.78;107328;1281;61399;-78
2023/04/12 10:47:48;;;;;;;20.00;10.60;;;;;;;12.76;100.00;99794.08;107315;1281;75838;-78
2023/04/12 10:50:23;;;;;;;24.20;10.70;;;;;;;12.71;100.00;99785.88;107331;1281;74237;-78
2023/04/12 10:53:16;;;;;;;25.70;10.30;;;;;;;12.67;100.00;99785.13;107341;1282;73895;-78
2023/04/12 10:55:43;;;;;;;22.60;11.00;;;;;;;12.61;100.00;99784.73;107299;1281;59707;-78
2023/04/12 10:58:09;;;;;;;25.60;10.60;;;;;;;12.62;100.00;99781.54;107305;1282;60471;-77
2023/04/12 11:00:57;;;;;;;28.80;11.70;;;;;;;12.57;100.00;99772.91;107363;1282;59059;-78
2023/04/12 11:03:23;;;;;;;25.60;10.60;;;;;;;12.61;100.00;99769.06;107344;1282;73468;-79
2023/04/12 11:06:03;;;;;;;25.10;11.30;;;;;;;12.64;100.00;99765.89;107317;1282;59145;-78
2023/04/12 11:08:30;;;;;;;25.00;10.60;;;;;;;12.60;100.00;99761.23;107290;1282;62756;-78
2023/04/12 11:11:01;;;;;;;30.90;13.40;;;;;;;12.58;100.00;99754.34;107291;1282;61162;-78
2023/04/12 11:13:27;;;;;;;24.00;10.40;;;;;;;12.57;100.00;99762.41;107319;1282;75441;-78